KBFL

Meadows Field Airport

Bakersfield, California, USA
METAR KBFL 150254Z 01004KT 10SM CLR 34/06 A2977 RMK AO2 SLP073 T03390056 53001 $
Observed Flight Rules
Aug-15 @ 02:54 UTC (42 minutes ago) Visual Flight Rules
Wind Visibility Clouds
10° at 4 knots 10 miles
  • Clear skies
Temperatures Readings
Current 34°C / 93°F
Dewpoint 6°C / 43°F
Humidity 17%
Altimeter 29.77" Hg
Pressure 1007.3 hPa
Elevation 151
METAR KBFL 150254Z 01004KT 10SM CLR 34/06 A2977 RMK AO2 SLP073 T03390056 53001 $
Observed Flight Rules
Aug-15 @ 02:54 UTC
(42 minutes ago)
VFR
Wind Visibility
10° at 4 knots 10 miles
Clouds
  • Clear skies
Temperature Dewpoint
34°C / 93°F 6°C / 43°F
Humidity Altimeter Pressure
17% 29.77" Hg 1007.3 hPa